PWSweather.com
Personal Weather Stations
Station Observations
PENICUIKWS
PenicuikGB

PenicuikGB

Lat: 55.830932, Lon: -3.224533000000065

Elevation: 166

Station Type: Fine Offset

http://weather.penicuik.org

High Low Average
Temperature 47.8°F8.8°C 31.6°F-0.2°C 39.0°F3.9°C
Dew Point 37.0°F2.8°C 28.5°F-1.9°C 33.5°F0.8°C
Winds 4.3 mph 6.9 kmh Calm Calm 2.0 mph SSW3.2 kmh SSW
Wind Gusts 13.6 mph21.9 kmh -- 3.0 mph4.8 kmh
Humidity 88% 63% 81%
Pressure 29.81 in1009.5 mb 29.35 in993.9 mb -
Precipitation 0.00 in0.0 mm - -
Hour Temp Dew Point Humidity Winds Wind Gusts Pressure Precip Precip Rate Daily Precip Total
12:00 AM 39.0°F3.9°C 34.0°F1.1°C 82% 2.7 mph WNW4.3 kmh WNW 4.5 mph7.2 kmh 29.35 in993.9 mb 0.00 in0.0 mm 0.00 in0.0 mm 0.00 in0.0 mm
01:00 AM 39.0°F3.9°C 34.3°F1.3°C 83% 1.7 mph WSW2.7 kmh WSW 3.8 mph6.1 kmh 29.36 in994.2 mb 0.00 in0.0 mm 0.00 in0.0 mm 0.00 in0.0 mm
01:15 AM 38.8°F3.8°C 34.1°F1.2°C 83% 2.8 mph NW4.5 kmh NW 7.6 mph12.2 kmh 29.36 in994.2 mb 0.00 in0.0 mm 0.00 in0.0 mm 0.00 in0.0 mm
01:45 AM 38.8°F3.8°C 34.4°F1.3°C 84% 2.8 mph NW4.5 kmh NW 4.5 mph7.2 kmh 29.37 in994.6 mb 0.00 in0.0 mm 0.00 in0.0 mm 0.00 in0.0 mm
02:00 AM 39.0°F3.9°C 34.3°F1.3°C 83% 2.0 mph WSW3.2 kmh WSW 6.0 mph9.7 kmh 29.37 in994.6 mb 0.00 in0.0 mm 0.00 in0.0 mm 0.00 in0.0 mm
02:15 AM 39.0°F3.9°C 34.3°F1.3°C 83% 3.8 mph SW6.1 kmh SW 6.9 mph11.1 kmh 29.36 in994.2 mb 0.00 in0.0 mm 0.00 in0.0 mm 0.00 in0.0 mm
02:30 AM 38.7°F3.7°C 33.7°F0.9°C 82% 2.0 mph N3.2 kmh N 3.1 mph5.0 kmh 29.37 in994.6 mb 0.00 in0.0 mm 0.00 in0.0 mm 0.00 in0.0 mm
02:45 AM 38.1°F3.4°C 33.1°F0.6°C 82% 2.7 mph E4.3 kmh E 4.5 mph7.2 kmh 29.36 in994.2 mb 0.00 in0.0 mm 0.00 in0.0 mm 0.00 in0.0 mm
03:00 AM 38.7°F3.7°C 34.0°F1.1°C 83% 2.9 mph NW4.7 kmh NW 5.4 mph8.7 kmh 29.36 in994.2 mb 0.00 in0.0 mm 0.00 in0.0 mm 0.00 in0.0 mm
03:15 AM 38.8°F3.8°C 33.8°F1.0°C 82% 3.7 mph W6.0 kmh W 4.5 mph7.2 kmh 29.35 in993.9 mb 0.00 in0.0 mm 0.00 in0.0 mm 0.00 in0.0 mm
03:30 AM 39.0°F3.9°C 34.0°F1.1°C 82% 4.3 mph NW6.9 kmh NW 6.0 mph9.7 kmh 29.36 in994.2 mb 0.00 in0.0 mm 0.00 in0.0 mm 0.00 in0.0 mm
03:45 AM 39.0°F3.9°C 34.0°F1.1°C 82% 4.2 mph NW6.8 kmh NW 13.6 mph21.9 kmh 29.36 in994.2 mb 0.00 in0.0 mm 0.00 in0.0 mm 0.00 in0.0 mm
04:00 AM 39.0°F3.9°C 33.7°F0.9°C 81% 3.8 mph SE6.1 kmh SE 10.7 mph17.2 kmh 29.37 in994.6 mb 0.00 in0.0 mm 0.00 in0.0 mm 0.00 in0.0 mm
04:15 AM 38.7°F3.7°C 33.0°F0.6°C 80% 3.1 mph SW5.0 kmh SW 5.4 mph8.7 kmh 29.38 in994.9 mb 0.00 in0.0 mm 0.00 in0.0 mm 0.00 in0.0 mm
04:45 AM 37.8°F3.2°C 32.5°F0.3°C 81% 0.9 mph W1.4 kmh W 2.2 mph3.5 kmh 29.40 in995.6 mb 0.00 in0.0 mm 0.00 in0.0 mm 0.00 in0.0 mm
05:00 AM 37.6°F3.1°C 32.6°F0.3°C 82% 1.7 mph W2.7 kmh W 3.1 mph5.0 kmh 29.39 in995.3 mb 0.00 in0.0 mm 0.00 in0.0 mm 0.00 in0.0 mm
05:15 AM 38.3°F3.5°C 33.3°F0.7°C 82% 3.6 mph NNW5.8 kmh NNW 9.2 mph14.8 kmh 29.39 in995.3 mb 0.00 in0.0 mm 0.00 in0.0 mm 0.00 in0.0 mm
05:30 AM 38.7°F3.7°C 33.7°F0.9°C 82% 2.8 mph SSE4.5 kmh SSE 4.5 mph7.2 kmh 29.38 in994.9 mb 0.00 in0.0 mm 0.00 in0.0 mm 0.00 in0.0 mm
05:45 AM 38.8°F3.8°C 33.8°F1.0°C 82% 4.0 mph WNW6.4 kmh WNW 6.9 mph11.1 kmh 29.39 in995.3 mb 0.00 in0.0 mm 0.00 in0.0 mm 0.00 in0.0 mm
06:00 AM 39.0°F3.9°C 34.0°F1.1°C 82% 3.7 mph W6.0 kmh W 6.9 mph11.1 kmh 29.40 in995.6 mb 0.00 in0.0 mm 0.00 in0.0 mm 0.00 in0.0 mm
06:15 AM 39.0°F3.9°C 34.0°F1.1°C 82% 3.5 mph NW5.6 kmh NW 6.0 mph9.7 kmh 29.39 in995.3 mb 0.00 in0.0 mm 0.00 in0.0 mm 0.00 in0.0 mm
06:30 AM 38.7°F3.7°C 33.7°F0.9°C 82% 2.7 mph NW4.3 kmh NW 6.9 mph11.1 kmh 29.40 in995.6 mb 0.00 in0.0 mm 0.00 in0.0 mm 0.00 in0.0 mm
06:45 AM 38.7°F3.7°C 33.7°F0.9°C 82% 3.2 mph WNW5.1 kmh WNW 4.5 mph7.2 kmh 29.40 in995.6 mb 0.00 in0.0 mm 0.00 in0.0 mm 0.00 in0.0 mm
07:00 AM 38.3°F3.5°C 33.3°F0.7°C 82% 1.7 mph NNW2.7 kmh NNW 2.2 mph3.5 kmh 29.40 in995.6 mb 0.00 in0.0 mm 0.00 in0.0 mm 0.00 in0.0 mm
07:15 AM 37.8°F3.2°C 32.8°F0.4°C 82% 1.1 mph NNW1.8 kmh NNW 2.2 mph3.5 kmh 29.41 in995.9 mb 0.00 in0.0 mm 0.00 in0.0 mm 0.00 in0.0 mm
07:30 AM 37.2°F2.9°C 31.3°F-0.4°C 79% 1.3 mph N2.1 kmh N 3.1 mph5.0 kmh 29.42 in996.3 mb 0.00 in0.0 mm 0.00 in0.0 mm 0.00 in0.0 mm
08:00 AM 36.7°F2.6°C 30.8°F-0.7°C 79% 1.6 mph NW2.6 kmh NW 4.5 mph7.2 kmh 29.43 in996.6 mb 0.00 in0.0 mm 0.00 in0.0 mm 0.00 in0.0 mm
08:30 AM 37.8°F3.2°C 33.4°F0.8°C 84% 1.7 mph SE2.7 kmh SE 3.1 mph5.0 kmh 29.43 in996.6 mb 0.00 in0.0 mm 0.00 in0.0 mm 0.00 in0.0 mm
08:45 AM 38.1°F3.4°C 33.7°F0.9°C 84% 1.2 mph NNW1.9 kmh NNW 3.1 mph5.0 kmh 29.44 in997.0 mb 0.00 in0.0 mm 0.00 in0.0 mm 0.00 in0.0 mm
09:00 AM 38.5°F3.6°C 34.1°F1.2°C 84% 0.5 mph N0.8 kmh N 2.2 mph3.5 kmh 29.45 in997.3 mb 0.00 in0.0 mm 0.00 in0.0 mm 0.00 in0.0 mm
09:15 AM 38.8°F3.8°C 34.4°F1.3°C 84% 0.8 mph WSW1.3 kmh WSW 2.2 mph3.5 kmh 29.45 in997.3 mb 0.00 in0.0 mm 0.00 in0.0 mm 0.00 in0.0 mm
09:30 AM 39.0°F3.9°C 34.6°F1.4°C 84% 0.8 mph WNW1.3 kmh WNW 2.2 mph3.5 kmh 29.45 in997.3 mb 0.00 in0.0 mm 0.00 in0.0 mm 0.00 in0.0 mm
09:45 AM 39.7°F4.3°C 35.0°F1.7°C 83% 2.0 mph WSW3.2 kmh WSW 4.5 mph7.2 kmh 29.46 in997.6 mb 0.00 in0.0 mm 0.00 in0.0 mm 0.00 in0.0 mm
10:00 AM 40.6°F4.8°C 35.6°F2.0°C 82% 2.4 mph WNW3.9 kmh WNW 3.8 mph6.1 kmh 29.46 in997.6 mb 0.00 in0.0 mm 0.00 in0.0 mm 0.00 in0.0 mm
10:15 AM 42.8°F6.0°C 36.7°F2.6°C 79% 1.5 mph N2.4 kmh N 5.4 mph8.7 kmh 29.46 in997.6 mb 0.00 in0.0 mm 0.00 in0.0 mm 0.00 in0.0 mm
10:30 AM 43.0°F6.1°C 35.9°F2.2°C 76% 1.8 mph N2.9 kmh N 3.1 mph5.0 kmh 29.48 in998.3 mb 0.00 in0.0 mm 0.00 in0.0 mm 0.00 in0.0 mm
10:45 AM 42.8°F6.0°C 35.1°F1.7°C 74% 3.4 mph W5.5 kmh W 7.6 mph12.2 kmh 29.48 in998.3 mb 0.00 in0.0 mm 0.00 in0.0 mm 0.00 in0.0 mm
11:00 AM 44.8°F7.1°C 36.0°F2.2°C 71% 3.2 mph N5.1 kmh N 5.4 mph8.7 kmh 29.48 in998.3 mb 0.00 in0.0 mm 0.00 in0.0 mm 0.00 in0.0 mm
11:15 AM 46.2°F7.9°C 35.9°F2.2°C 67% 2.7 mph SSW4.3 kmh SSW 3.8 mph6.1 kmh 29.48 in998.3 mb 0.00 in0.0 mm 0.00 in0.0 mm 0.00 in0.0 mm
11:30 AM 47.8°F8.8°C 37.0°F2.8°C 66% 2.8 mph SW4.5 kmh SW 4.5 mph7.2 kmh 29.48 in998.3 mb 0.00 in0.0 mm 0.00 in0.0 mm 0.00 in0.0 mm
11:45 AM 46.9°F8.3°C 35.0°F1.7°C 63% 3.0 mph SW4.8 kmh SW 6.9 mph11.1 kmh 29.48 in998.3 mb 0.00 in0.0 mm 0.00 in0.0 mm 0.00 in0.0 mm
12:00 PM 47.1°F8.4°C 35.6°F2.0°C 64% 3.0 mph NE4.8 kmh NE 4.5 mph7.2 kmh 29.48 in998.3 mb 0.00 in0.0 mm 0.00 in0.0 mm 0.00 in0.0 mm
12:15 PM 43.7°F6.5°C 34.2°F1.2°C 69% 3.0 mph NNE4.8 kmh NNE 6.9 mph11.1 kmh 29.48 in998.3 mb 0.00 in0.0 mm 0.00 in0.0 mm 0.00 in0.0 mm
12:30 PM 43.9°F6.6°C 34.7°F1.5°C 70% 2.5 mph S4.0 kmh S 4.5 mph7.2 kmh 29.48 in998.3 mb 0.00 in0.0 mm 0.00 in0.0 mm 0.00 in0.0 mm
12:45 PM 43.5°F6.4°C 35.1°F1.7°C 72% 2.1 mph NW3.4 kmh NW 4.5 mph7.2 kmh 29.48 in998.3 mb 0.00 in0.0 mm 0.00 in0.0 mm 0.00 in0.0 mm
01:00 PM 43.3°F6.3°C 35.3°F1.8°C 73% 2.6 mph WSW4.2 kmh WSW 6.0 mph9.7 kmh 29.48 in998.3 mb 0.00 in0.0 mm 0.00 in0.0 mm 0.00 in0.0 mm
01:15 PM 43.0°F6.1°C 35.3°F1.8°C 74% 1.8 mph W2.9 kmh W 3.1 mph5.0 kmh 29.47 in998.0 mb 0.00 in0.0 mm 0.00 in0.0 mm 0.00 in0.0 mm
01:30 PM 42.3°F5.7°C 35.2°F1.8°C 76% 1.7 mph SSW2.7 kmh SSW 3.8 mph6.1 kmh 29.48 in998.3 mb 0.00 in0.0 mm 0.00 in0.0 mm 0.00 in0.0 mm
01:45 PM 42.1°F5.6°C 35.1°F1.7°C 76% 0.9 mph SSW1.4 kmh SSW 3.8 mph6.1 kmh 29.47 in998.0 mb 0.00 in0.0 mm 0.00 in0.0 mm 0.00 in0.0 mm
02:00 PM 42.6°F5.9°C 35.6°F2.0°C 76% 1.7 mph WNW2.7 kmh WNW 3.1 mph5.0 kmh 29.48 in998.3 mb 0.00 in0.0 mm 0.00 in0.0 mm 0.00 in0.0 mm
02:15 PM 42.3°F5.7°C 34.9°F1.6°C 75% 0.2 mph NE0.3 kmh NE 0.7 mph1.1 kmh 29.49 in998.6 mb 0.00 in0.0 mm 0.00 in0.0 mm 0.00 in0.0 mm
02:30 PM 41.0°F5.0°C 33.7°F0.9°C 75% 0.3 mph W0.5 kmh W 0.7 mph1.1 kmh 29.49 in998.6 mb 0.00 in0.0 mm 0.00 in0.0 mm 0.00 in0.0 mm
02:45 PM 39.0°F3.9°C 32.4°F0.2°C 77% Calm Calm -- 29.50 in999.0 mb 0.00 in0.0 mm 0.00 in0.0 mm 0.00 in0.0 mm
03:00 PM 38.8°F3.8°C 32.6°F0.3°C 78% 0.2 mph SW0.3 kmh SW 0.7 mph1.1 kmh 29.50 in999.0 mb 0.00 in0.0 mm 0.00 in0.0 mm 0.00 in0.0 mm
03:15 PM 39.0°F3.9°C 33.4°F0.8°C 80% 0.4 mph N0.6 kmh N 1.6 mph2.6 kmh 29.51 in999.3 mb 0.00 in0.0 mm 0.00 in0.0 mm 0.00 in0.0 mm
04:00 PM 40.1°F4.5°C 34.7°F1.5°C 81% 0.8 mph SSW1.3 kmh SSW 2.2 mph3.5 kmh 29.54 in1000.3 mb 0.00 in0.0 mm 0.00 in0.0 mm 0.00 in0.0 mm
04:15 PM 40.1°F4.5°C 34.4°F1.3°C 80% 0.4 mph E0.6 kmh E 0.7 mph1.1 kmh 29.54 in1000.3 mb 0.00 in0.0 mm 0.00 in0.0 mm 0.00 in0.0 mm
04:30 PM 39.7°F4.3°C 34.1°F1.2°C 80% 0.2 mph NW0.3 kmh NW 1.6 mph2.6 kmh 29.55 in1000.7 mb 0.00 in0.0 mm 0.00 in0.0 mm 0.00 in0.0 mm
05:00 PM 39.9°F4.4°C 34.9°F1.6°C 82% 1.5 mph SSW2.4 kmh SSW 3.1 mph5.0 kmh 29.55 in1000.7 mb 0.00 in0.0 mm 0.00 in0.0 mm 0.00 in0.0 mm
05:15 PM 39.9°F4.4°C 34.9°F1.6°C 82% 1.9 mph SSE3.1 kmh SSE 3.1 mph5.0 kmh 29.56 in1001.0 mb 0.00 in0.0 mm 0.00 in0.0 mm 0.00 in0.0 mm
05:30 PM 39.7°F4.3°C 34.7°F1.5°C 82% 0.3 mph SW0.5 kmh SW 1.6 mph2.6 kmh 29.57 in1001.4 mb 0.00 in0.0 mm 0.00 in0.0 mm 0.00 in0.0 mm
05:45 PM 39.7°F4.3°C 35.0°F1.7°C 83% 0.2 mph N0.3 kmh N 1.6 mph2.6 kmh 29.58 in1001.7 mb 0.00 in0.0 mm 0.00 in0.0 mm 0.00 in0.0 mm
06:00 PM 39.0°F3.9°C 34.6°F1.4°C 84% 0.1 mph NE0.2 kmh NE 0.7 mph1.1 kmh 29.60 in1002.4 mb 0.00 in0.0 mm 0.00 in0.0 mm 0.00 in0.0 mm
06:15 PM 38.8°F3.8°C 34.4°F1.3°C 84% 0.1 mph NW0.2 kmh NW 0.7 mph1.1 kmh 29.60 in1002.4 mb 0.00 in0.0 mm 0.00 in0.0 mm 0.00 in0.0 mm
06:30 PM 38.1°F3.4°C 33.7°F0.9°C 84% Calm Calm -- 29.62 in1003.0 mb 0.00 in0.0 mm 0.00 in0.0 mm 0.00 in0.0 mm
06:45 PM 37.9°F3.3°C 33.8°F1.0°C 85% 0.3 mph S0.5 kmh S 1.6 mph2.6 kmh 29.62 in1003.0 mb 0.00 in0.0 mm 0.00 in0.0 mm 0.00 in0.0 mm
07:15 PM 37.6°F3.1°C 33.8°F1.0°C 86% 0.2 mph SW0.3 kmh SW 0.7 mph1.1 kmh 29.65 in1004.1 mb 0.00 in0.0 mm 0.00 in0.0 mm 0.00 in0.0 mm
07:30 PM 37.0°F2.8°C 32.1°F0.1°C 82% Calm Calm -- 29.65 in1004.1 mb 0.00 in0.0 mm 0.00 in0.0 mm 0.00 in0.0 mm
07:45 PM 36.9°F2.7°C 32.2°F0.1°C 83% Calm Calm -- 29.66 in1004.4 mb 0.00 in0.0 mm 0.00 in0.0 mm 0.00 in0.0 mm
08:15 PM 37.0°F2.8°C 32.7°F0.4°C 84% 0.1 mph SW0.2 kmh SW 0.7 mph1.1 kmh 29.68 in1005.1 mb 0.00 in0.0 mm 0.00 in0.0 mm 0.00 in0.0 mm
08:30 PM 36.5°F2.5°C 32.1°F0.1°C 84% Calm Calm -- 29.69 in1005.4 mb 0.00 in0.0 mm 0.00 in0.0 mm 0.00 in0.0 mm
09:00 PM 36.1°F2.3°C 32.1°F0.1°C 85% 0.1 mph NW0.2 kmh NW 0.7 mph1.1 kmh 29.70 in1005.8 mb 0.00 in0.0 mm 0.00 in0.0 mm 0.00 in0.0 mm
09:15 PM 35.2°F1.8°C 31.2°F-0.4°C 85% 0.2 mph SE0.3 kmh SE 0.7 mph1.1 kmh 29.72 in1006.4 mb 0.00 in0.0 mm 0.00 in0.0 mm 0.00 in0.0 mm
09:30 PM 34.3°F1.3°C 30.3°F-0.9°C 85% Calm Calm 0.7 mph1.1 kmh 29.73 in1006.8 mb 0.00 in0.0 mm 0.00 in0.0 mm 0.00 in0.0 mm
09:45 PM 33.6°F0.9°C 29.9°F-1.2°C 86% 0.3 mph SW0.5 kmh SW 0.7 mph1.1 kmh 29.74 in1007.1 mb 0.00 in0.0 mm 0.00 in0.0 mm 0.00 in0.0 mm
10:00 PM 33.1°F0.6°C 29.4°F-1.4°C 86% 0.6 mph SW1.0 kmh SW 0.7 mph1.1 kmh 29.75 in1007.5 mb 0.00 in0.0 mm 0.00 in0.0 mm 0.00 in0.0 mm
10:15 PM 32.7°F0.4°C 29.0°F-1.7°C 86% 0.7 mph S1.1 kmh S 1.6 mph2.6 kmh 29.76 in1007.8 mb 0.00 in0.0 mm 0.00 in0.0 mm 0.00 in0.0 mm
10:30 PM 32.5°F0.3°C 28.8°F-1.8°C 86% 1.0 mph SW1.6 kmh SW 1.6 mph2.6 kmh 29.77 in1008.1 mb 0.00 in0.0 mm 0.00 in0.0 mm 0.00 in0.0 mm
10:45 PM 32.9°F0.5°C 29.5°F-1.4°C 87% 0.7 mph SW1.1 kmh SW 1.6 mph2.6 kmh 29.78 in1008.5 mb 0.00 in0.0 mm 0.00 in0.0 mm 0.00 in0.0 mm
11:00 PM 32.7°F0.4°C 29.3°F-1.5°C 87% 0.3 mph SW0.5 kmh SW 1.6 mph2.6 kmh 29.79 in1008.8 mb 0.00 in0.0 mm 0.00 in0.0 mm 0.00 in0.0 mm
11:15 PM 32.2°F0.1°C 28.8°F-1.8°C 87% 0.5 mph SW0.8 kmh SW 1.6 mph2.6 kmh 29.79 in1008.8 mb 0.00 in0.0 mm 0.00 in0.0 mm 0.00 in0.0 mm
11:30 PM 31.8°F-0.1°C 28.7°F-1.8°C 88% 1.1 mph SW1.8 kmh SW 1.6 mph2.6 kmh 29.80 in1009.1 mb 0.00 in0.0 mm 0.00 in0.0 mm 0.00 in0.0 mm
11:45 PM 31.6°F-0.2°C 28.5°F-1.9°C 88% 1.0 mph SW1.6 kmh SW 1.6 mph2.6 kmh 29.81 in1009.5 mb 0.00 in0.0 mm 0.00 in0.0 mm 0.00 in0.0 mm